Terminal Aerodrome Forecast
Issued by NWS

Home | Current Version | Previous Version | Text Only | Print | Product List | Glossary On
Versions: 1 2 3 4 5 6 7 8 9 10 11 12 13 14 15 16 17 18 19 20 21 22 23 24 25 26 27 28 29 30 31 32 33 34 35 36 37
000
FTUS41 KBOX 221120
TAFACK
TAF
KACK 221120Z 2212/2312 03012G20KT P6SM BKN008
     FM221700 04013G25KT P6SM SCT008 OVC015
     FM222100 06015KT 5SM -SHRA BR OVC008
     FM230000 07014KT 3SM SHRA BR OVC008
     FM230600 12008KT 3SM -SHRA BR OVC003
     FM230900 12007KT 3SM -SHRA BR OVC008=

USA.gov is the U.S. government's official web portal to all federal, state and local government web resources and services.